createdAt,value
2023-01-10T00:02:25.758Z,5.00
2023-01-10T00:04:53.513Z,4.98
2023-01-10T00:07:22.634Z,5.03
2023-01-10T00:09:50.322Z,4.92
2023-01-10T00:12:36.012Z,4.97
2023-01-10T00:15:03.698Z,5.02
2023-01-10T00:17:31.368Z,4.96
2023-01-10T00:19:59.129Z,4.85
2023-01-10T00:22:28.190Z,4.98
2023-01-10T00:24:55.888Z,5.10
2023-01-10T00:27:26.729Z,5.03
2023-01-10T00:29:54.589Z,4.89
2023-01-10T00:32:23.036Z,5.11
2023-01-10T00:34:50.816Z,4.99
2023-01-10T00:37:18.573Z,4.88
2023-01-10T00:39:47.668Z,5.00
2023-01-10T00:42:32.940Z,4.94
2023-01-10T00:45:00.693Z,4.92
2023-01-10T00:47:28.454Z,4.71
2023-01-10T00:49:56.275Z,4.95
2023-01-10T00:52:24.040Z,5.07
2023-01-10T00:54:53.575Z,4.93
2023-01-10T00:57:21.353Z,4.86
2023-01-10T00:59:49.179Z,5.01
2023-01-10T01:02:16.995Z,4.92
2023-01-10T01:04:44.802Z,4.83
2023-01-10T01:07:12.606Z,5.03
2023-01-10T01:10:00.581Z,4.99
2023-01-10T01:12:29.724Z,4.95
2023-01-10T01:14:58.259Z,4.97
2023-01-10T01:17:26.034Z,5.01
2023-01-10T01:19:53.791Z,4.97
2023-01-10T01:22:21.670Z,5.16
2023-01-10T01:24:49.481Z,5.32
2023-01-10T01:27:17.201Z,5.59
2023-01-10T01:29:46.311Z,5.28
2023-01-10T01:32:16.430Z,5.48
2023-01-10T01:34:44.222Z,5.52
2023-01-10T01:37:11.940Z,5.22
2023-01-10T01:39:39.666Z,5.29
2023-01-10T01:42:07.935Z,5.24
2023-01-10T01:44:40.358Z,5.28
2023-01-10T01:47:18.487Z,5.20
2023-01-10T01:49:46.869Z,4.99
2023-01-10T01:52:22.690Z,5.21
2023-01-10T01:54:50.792Z,5.05
2023-01-10T01:57:22.570Z,4.82
2023-01-10T01:59:54.759Z,4.75
2023-01-10T02:02:27.867Z,4.76
2023-01-10T02:04:58.701Z,4.81
2023-01-10T02:07:29.921Z,4.80
2023-01-10T02:10:02.389Z,4.76
2023-01-10T02:12:31.869Z,4.68
2023-01-10T02:15:00.655Z,4.86
2023-01-10T02:17:29.768Z,4.68
2023-01-10T02:20:00.354Z,4.74
2023-01-10T02:23:10.529Z,4.57
2023-01-10T02:26:07.054Z,4.81
2023-01-10T02:29:04.758Z,4.86
2023-01-10T02:32:08.601Z,4.84
2023-01-10T02:34:48.991Z,4.77
2023-01-10T02:37:21.100Z,4.67
2023-01-10T02:39:56.264Z,4.95
2023-01-10T02:42:30.637Z,4.91
2023-01-10T02:45:04.550Z,4.64
2023-01-10T02:47:36.566Z,4.71
2023-01-10T02:50:29.125Z,4.46
2023-01-10T02:53:00.686Z,4.66
2023-01-10T02:55:44.403Z,4.54
2023-01-10T02:58:26.152Z,4.67
2023-01-10T03:01:01.519Z,4.69
2023-01-10T03:03:41.891Z,4.67
2023-01-10T03:06:23.019Z,4.41
2023-01-10T03:08:56.933Z,4.63
2023-01-10T03:11:40.926Z,4.53
2023-01-10T03:14:16.176Z,4.32
2023-01-10T03:16:49.128Z,4.38
2023-01-10T03:19:20.023Z,4.36
2023-01-10T03:21:53.635Z,4.37
2023-01-10T03:24:29.774Z,4.66
2023-01-10T03:27:03.134Z,4.54
2023-01-10T03:29:38.100Z,4.31
2023-01-10T03:32:08.830Z,4.56
2023-01-10T03:34:37.322Z,4.73
2023-01-10T03:37:14.207Z,4.40
2023-01-10T03:39:51.462Z,4.39
2023-01-10T03:42:26.990Z,4.39
2023-01-10T03:45:01.956Z,4.46
2023-01-10T03:47:35.902Z,4.64
2023-01-10T03:50:08.284Z,4.42
2023-01-10T03:52:38.510Z,4.47
2023-01-10T03:55:08.336Z,4.29
2023-01-10T03:57:36.089Z,4.20
2023-01-10T04:00:04.992Z,4.28
2023-01-10T04:02:33.549Z,4.36
2023-01-10T04:05:01.385Z,4.25
2023-01-10T04:07:29.213Z,4.22
2023-01-10T04:09:58.641Z,4.19
2023-01-10T04:12:26.587Z,4.12
2023-01-10T04:14:54.260Z,4.15
2023-01-10T04:17:21.976Z,4.16
2023-01-10T04:19:49.661Z,4.15
2023-01-10T04:22:17.530Z,4.12
2023-01-10T04:24:47.095Z,4.11
2023-01-10T04:27:16.279Z,4.08
2023-01-10T04:29:44.144Z,4.05
2023-01-10T04:32:11.844Z,3.92
2023-01-10T04:34:39.678Z,3.97
2023-01-10T04:37:07.323Z,4.10
2023-01-10T04:39:35.069Z,3.98
2023-01-10T04:42:02.912Z,4.12
2023-01-10T04:44:32.421Z,4.18
2023-01-10T04:47:00.140Z,4.16
2023-01-10T04:49:28.007Z,4.42
2023-01-10T04:51:55.714Z,4.35
2023-01-10T04:54:24.331Z,4.28
2023-01-10T04:56:52.048Z,4.24
2023-01-10T04:59:20.093Z,4.33
2023-01-10T05:01:49.652Z,4.38
2023-01-10T05:04:19.436Z,4.27
2023-01-10T05:06:49.344Z,4.44
2023-01-10T05:09:17.133Z,4.28
2023-01-10T05:11:44.931Z,4.31
2023-01-10T05:14:12.673Z,4.26
2023-01-10T05:16:40.479Z,4.46
2023-01-10T05:19:09.816Z,4.35
2023-01-10T05:21:37.615Z,4.59
2023-01-10T05:24:07.377Z,4.54
2023-01-10T05:26:35.090Z,4.45
2023-01-10T05:29:02.834Z,4.44
2023-01-10T05:31:30.707Z,4.47
2023-01-10T05:33:58.439Z,4.60
2023-01-10T05:36:27.562Z,4.49
2023-01-10T05:38:55.354Z,4.57
2023-01-10T05:41:23.552Z,4.34
2023-01-10T05:43:51.313Z,4.49
2023-01-10T05:46:25.419Z,4.55
2023-01-10T05:48:53.464Z,4.64
2023-01-10T05:51:21.277Z,4.52
2023-01-10T05:53:50.435Z,4.61
2023-01-10T05:56:18.266Z,4.58
2023-01-10T05:58:47.355Z,4.77
2023-01-10T06:01:15.269Z,4.70
2023-01-10T06:03:43.069Z,4.73
2023-01-10T06:06:11.044Z,4.67
2023-01-10T06:08:38.948Z,4.68
2023-01-10T06:11:08.711Z,4.70
2023-01-10T06:13:36.464Z,4.64
2023-01-10T06:16:04.859Z,4.65
2023-01-10T06:18:32.563Z,4.81
2023-01-10T06:21:00.287Z,4.73
2023-01-10T06:23:30.283Z,4.66
2023-01-10T06:25:58.375Z,4.74
2023-01-10T06:28:27.465Z,4.56
2023-01-10T06:30:55.234Z,4.87
2023-01-10T06:33:22.950Z,4.75
2023-01-10T06:35:50.730Z,4.82
2023-01-10T06:38:18.475Z,4.90
2023-01-10T06:40:46.337Z,4.67
2023-01-10T06:43:14.064Z,4.74
2023-01-10T06:45:43.981Z,4.64
2023-01-10T06:48:14.478Z,4.56
2023-01-10T06:50:42.230Z,4.63
2023-01-10T06:53:12.535Z,5.09
2023-01-10T06:55:40.407Z,4.97
2023-01-10T06:58:08.334Z,4.84
2023-01-10T07:00:36.119Z,4.83
2023-01-10T07:03:05.403Z,4.71
2023-01-10T07:05:34.798Z,4.79
2023-01-10T07:08:02.518Z,4.68
2023-01-10T07:10:30.356Z,4.74
2023-01-10T07:12:59.486Z,4.62
2023-01-10T07:15:28.037Z,4.64
2023-01-10T07:17:57.844Z,4.80
2023-01-10T07:20:27.835Z,4.88
2023-01-10T07:22:56.082Z,5.09
2023-01-10T07:25:24.171Z,4.70
2023-01-10T07:27:51.967Z,4.80
2023-01-10T07:30:19.942Z,4.67
2023-01-10T07:32:53.421Z,4.90
2023-01-10T07:35:21.267Z,5.03
2023-01-10T07:37:50.433Z,4.80
2023-01-10T07:40:18.913Z,4.65
2023-01-10T07:42:46.662Z,4.63
2023-01-10T07:45:14.636Z,4.54
2023-01-10T07:47:42.463Z,4.99
2023-01-10T07:50:11.173Z,4.90
2023-01-10T07:52:39.357Z,4.55
2023-01-10T07:55:09.628Z,4.77
2023-01-10T07:57:37.592Z,4.66
2023-01-10T08:00:05.915Z,4.81
2023-01-10T08:02:33.733Z,4.74
2023-01-10T08:05:01.523Z,4.84
2023-01-10T08:07:30.231Z,4.72
2023-01-10T08:09:57.986Z,4.91
2023-01-10T08:12:27.141Z,4.98
2023-01-10T08:14:54.917Z,4.81
2023-01-10T08:17:23.134Z,4.74
2023-01-10T08:19:50.904Z,4.79
2023-01-10T08:22:19.028Z,5.00
2023-01-10T08:24:46.784Z,5.08
2023-01-10T08:27:14.673Z,5.03
2023-01-10T08:29:43.847Z,4.94
2023-01-10T08:32:12.317Z,5.02
2023-01-10T08:34:40.411Z,5.04
2023-01-10T08:37:11.239Z,4.90
2023-01-10T08:39:39.412Z,5.16
2023-01-10T08:42:07.291Z,4.90
2023-01-10T08:44:35.257Z,5.21
2023-01-10T08:47:04.529Z,5.20
2023-01-10T08:49:32.371Z,5.08
2023-01-10T08:52:00.115Z,5.00
2023-01-10T08:54:28.146Z,4.92
2023-01-10T08:56:55.905Z,4.99
2023-01-10T08:59:23.721Z,5.20
2023-01-10T09:01:51.680Z,5.26
2023-01-10T09:04:20.870Z,4.99
2023-01-10T09:06:48.683Z,5.03
2023-01-10T09:09:16.799Z,5.29
2023-01-10T09:11:44.590Z,5.14
2023-01-10T09:14:12.388Z,5.22
2023-01-10T09:16:40.161Z,5.18
2023-01-10T09:19:07.936Z,5.44
2023-01-10T09:21:37.094Z,5.21
2023-01-10T09:24:05.183Z,5.42
2023-01-10T09:26:32.930Z,5.69
2023-01-10T09:29:00.740Z,5.19
2023-01-10T09:31:28.660Z,5.50
2023-01-10T09:33:56.882Z,5.54
2023-01-10T09:36:24.599Z,5.90
2023-01-10T09:38:53.758Z,5.59
2023-01-10T09:41:35.600Z,5.58
2023-01-10T09:44:06.545Z,5.35
2023-01-10T09:46:49.436Z,5.59
2023-01-10T09:49:30.482Z,5.43
2023-01-10T09:51:59.489Z,5.59
2023-01-10T09:54:32.730Z,5.52
2023-01-10T09:57:02.398Z,5.43
2023-01-10T09:59:37.957Z,5.38
2023-01-10T10:02:16.325Z,5.81
2023-01-10T10:04:52.175Z,5.74
2023-01-10T10:07:20.457Z,5.95
2023-01-10T10:09:49.661Z,5.82
2023-01-10T10:12:28.475Z,5.79
2023-01-10T10:15:10.480Z,5.83
2023-01-10T10:17:45.722Z,5.83
2023-01-10T10:20:24.126Z,5.88
2023-01-10T10:23:01.132Z,5.77
2023-01-10T10:25:44.811Z,5.82
2023-01-10T10:28:39.187Z,5.81
2023-01-10T10:31:21.749Z,5.78
2023-01-10T10:34:01.638Z,5.72
2023-01-10T10:36:38.587Z,5.80
2023-01-10T10:39:09.691Z,5.86
2023-01-10T10:41:42.299Z,6.00
2023-01-10T10:44:33.073Z,6.09
2023-01-10T10:47:01.800Z,6.17
2023-01-10T10:49:39.438Z,6.53
2023-01-10T10:52:16.980Z,6.53
2023-01-10T10:54:46.973Z,6.55
2023-01-10T10:57:17.234Z,6.29
2023-01-10T10:59:48.658Z,6.33
2023-01-10T11:02:26.472Z,6.27
2023-01-10T11:04:59.593Z,6.44
2023-01-10T11:07:30.688Z,6.83
2023-01-10T11:10:31.178Z,6.48
2023-01-10T11:13:01.740Z,6.59
2023-01-10T11:15:38.742Z,6.74
2023-01-10T11:18:08.652Z,7.10
2023-01-10T11:20:36.574Z,7.21
2023-01-10T11:23:05.673Z,7.00
2023-01-10T11:25:33.404Z,6.70
2023-01-10T11:28:02.643Z,6.60
2023-01-10T11:30:33.044Z,6.58
2023-01-10T11:33:03.103Z,6.30
2023-01-10T11:35:33.733Z,6.53
2023-01-10T11:38:03.732Z,6.84
2023-01-10T11:40:32.807Z,7.58
2023-01-10T11:43:22.131Z,7.14
2023-01-10T11:45:55.067Z,7.27
2023-01-10T11:48:53.159Z,6.95
2023-01-10T11:51:23.819Z,7.06
2023-01-10T11:53:58.788Z,7.22
2023-01-10T11:56:30.326Z,7.13
2023-01-10T11:59:09.069Z,7.02
2023-01-10T12:01:41.327Z,6.82
2023-01-10T12:04:15.584Z,6.92
2023-01-10T12:06:45.847Z,6.76
2023-01-10T12:09:36.241Z,6.91
2023-01-10T12:12:05.787Z,7.03
2023-01-10T12:14:36.012Z,7.20
2023-01-10T12:17:04.770Z,7.31
2023-01-10T12:19:32.603Z,6.81
2023-01-10T12:22:03.958Z,7.08
2023-01-10T12:24:35.887Z,7.33
2023-01-10T12:27:04.855Z,7.66
2023-01-10T12:29:36.579Z,7.42
2023-01-10T12:32:07.931Z,8.20
2023-01-10T12:34:43.347Z,8.68
2023-01-10T12:37:20.219Z,8.00
2023-01-10T12:39:52.204Z,8.27
2023-01-10T12:42:45.272Z,8.90
2023-01-10T12:45:20.660Z,8.39
2023-01-10T12:48:00.241Z,7.76
2023-01-10T12:50:32.580Z,7.39
2023-01-10T12:53:04.285Z,7.75
2023-01-10T12:55:37.300Z,8.04
2023-01-10T12:58:06.606Z,7.58
2023-01-10T13:00:48.107Z,7.62
2023-01-10T13:03:20.880Z,8.17
2023-01-10T13:05:50.709Z,8.05
2023-01-10T13:08:22.532Z,7.83
2023-01-10T13:10:53.578Z,7.53
2023-01-10T13:13:31.319Z,7.35
2023-01-10T13:16:16.004Z,7.31
2023-01-10T13:19:01.201Z,7.41
2023-01-10T13:21:29.690Z,7.63
2023-01-10T13:24:01.888Z,8.01
2023-01-10T13:26:47.876Z,8.04
2023-01-10T13:29:20.701Z,7.91
2023-01-10T13:31:57.043Z,8.11
2023-01-10T13:34:27.931Z,7.93
2023-01-10T13:36:59.261Z,8.28
2023-01-10T13:39:32.768Z,8.32
2023-01-10T13:42:50.424Z,7.84
2023-01-10T13:45:26.561Z,7.68
2023-01-10T13:48:24.178Z,7.98
2023-01-10T13:50:58.702Z,8.04
2023-01-10T13:53:56.054Z,7.94
2023-01-10T13:56:36.085Z,8.09
2023-01-10T13:59:24.097Z,8.19
2023-01-10T14:02:11.555Z,9.03
2023-01-10T14:04:48.168Z,7.98
2023-01-10T14:07:23.213Z,8.38
2023-01-10T14:09:52.465Z,8.66
2023-01-10T14:12:24.664Z,8.75
2023-01-10T14:14:57.341Z,8.76
2023-01-10T14:17:28.118Z,8.80
2023-01-10T14:20:05.702Z,8.64
2023-01-10T14:22:35.986Z,8.13
2023-01-10T14:25:06.678Z,7.80
2023-01-10T14:27:44.749Z,7.54
2023-01-10T14:30:19.503Z,7.46
2023-01-10T14:32:51.253Z,7.45
2023-01-10T14:35:23.022Z,7.26
2023-01-10T14:37:55.553Z,7.08
2023-01-10T14:40:28.485Z,7.14
2023-01-10T14:43:00.064Z,7.30
2023-01-10T14:45:34.620Z,7.01
2023-01-10T14:48:18.441Z,6.90
2023-01-10T14:50:47.557Z,6.82
2023-01-10T14:53:26.731Z,6.88
2023-01-10T14:55:54.594Z,6.77
2023-01-10T14:58:22.855Z,6.73
2023-01-10T15:00:52.380Z,6.99
2023-01-10T15:03:22.240Z,7.28
2023-01-10T15:05:54.184Z,7.45
2023-01-10T15:08:24.197Z,7.76
2023-01-10T15:10:54.284Z,7.77
2023-01-10T15:13:26.334Z,8.09
2023-01-10T15:15:54.657Z,7.50
2023-01-10T15:18:37.926Z,7.69
2023-01-10T15:21:07.964Z,7.80
2023-01-10T15:23:37.285Z,7.60
2023-01-10T15:26:09.729Z,7.25
2023-01-10T15:28:38.197Z,7.00
2023-01-10T15:31:08.503Z,7.07
2023-01-10T15:33:38.826Z,7.59
2023-01-10T15:36:13.663Z,7.34
2023-01-10T15:38:45.481Z,7.01
2023-01-10T15:41:19.699Z,7.05
2023-01-10T15:43:49.911Z,7.06
2023-01-10T15:46:22.999Z,6.79
2023-01-10T15:49:00.440Z,7.09
2023-01-10T15:51:34.050Z,6.87
2023-01-10T15:54:07.232Z,6.53
2023-01-10T15:56:37.980Z,6.86
2023-01-10T15:59:21.167Z,6.70
2023-01-10T16:01:54.661Z,6.61
2023-01-10T16:04:22.806Z,6.27
2023-01-10T16:07:05.925Z,6.13
2023-01-10T16:09:33.992Z,6.17
2023-01-10T16:12:19.320Z,6.23
2023-01-10T16:14:47.018Z,6.79
2023-01-10T16:17:14.851Z,6.03
2023-01-10T16:19:42.615Z,5.96
2023-01-10T16:22:19.250Z,6.21
2023-01-10T16:24:48.241Z,6.24
2023-01-10T16:27:16.169Z,6.26
2023-01-10T16:29:44.511Z,6.40
2023-01-10T16:32:15.296Z,6.53
2023-01-10T16:34:43.893Z,6.53
2023-01-10T16:37:13.121Z,6.61
2023-01-10T16:39:40.819Z,6.65
2023-01-10T16:42:27.946Z,6.17
2023-01-10T16:44:58.697Z,5.92
2023-01-10T16:47:26.465Z,6.00
2023-01-10T16:49:54.371Z,5.65
2023-01-10T16:52:23.440Z,6.27
2023-01-10T16:54:51.174Z,5.75
2023-01-10T16:57:18.907Z,5.76
2023-01-10T16:59:46.648Z,5.86
2023-01-10T17:02:18.849Z,5.88
2023-01-10T17:04:46.710Z,6.22
2023-01-10T17:07:14.413Z,6.07
2023-01-10T17:09:43.829Z,6.20
2023-01-10T17:12:19.331Z,6.22
2023-01-10T17:14:48.166Z,6.26
2023-01-10T17:17:16.183Z,5.87
2023-01-10T17:19:44.643Z,6.14
2023-01-10T17:22:12.417Z,6.47
2023-01-10T17:24:40.295Z,6.25
2023-01-10T17:27:09.420Z,6.99
2023-01-10T17:29:37.454Z,7.08
2023-01-10T17:32:05.682Z,6.38
2023-01-10T17:34:38.299Z,6.38
2023-01-10T17:37:06.778Z,6.03
2023-01-10T17:39:37.546Z,6.22
2023-01-10T17:42:08.951Z,6.90
2023-01-10T17:44:38.160Z,6.72
2023-01-10T17:47:06.000Z,6.59
2023-01-10T17:49:34.801Z,6.55
2023-01-10T17:52:02.717Z,7.52
2023-01-10T17:54:30.574Z,7.61
2023-01-10T17:56:58.354Z,8.03
2023-01-10T17:59:26.111Z,7.99
2023-01-10T18:01:55.387Z,7.73
2023-01-10T18:04:23.277Z,7.72
2023-01-10T18:06:52.258Z,8.19
2023-01-10T18:09:20.288Z,7.46
2023-01-10T18:11:48.172Z,7.54
2023-01-10T18:14:33.678Z,8.02
2023-01-10T18:17:03.095Z,6.88
2023-01-10T18:19:31.003Z,6.93
2023-01-10T18:21:58.769Z,7.66
2023-01-10T18:24:26.538Z,7.35
2023-01-10T18:26:54.304Z,7.20
2023-01-10T18:29:22.232Z,7.26
2023-01-10T18:31:50.071Z,7.29
2023-01-10T18:34:19.345Z,6.99
2023-01-10T18:36:47.146Z,6.90
2023-01-10T18:39:14.947Z,7.59
2023-01-10T18:41:42.745Z,7.73
2023-01-10T18:44:10.742Z,7.16
2023-01-10T18:46:38.479Z,7.11
2023-01-10T18:49:06.442Z,6.82
2023-01-10T18:51:38.388Z,6.51
2023-01-10T18:54:06.821Z,6.43
2023-01-10T18:56:34.723Z,6.99
2023-01-10T18:59:02.497Z,6.76
2023-01-10T19:01:30.471Z,6.79
2023-01-10T19:03:58.721Z,6.84
2023-01-10T19:06:26.397Z,6.81
2023-01-10T19:08:55.552Z,7.25
2023-01-10T19:11:23.413Z,6.57
2023-01-10T19:13:53.869Z,6.69
2023-01-10T19:16:26.610Z,6.32
2023-01-10T19:18:56.516Z,6.39
2023-01-10T19:21:25.807Z,6.79
2023-01-10T19:24:00.987Z,6.38
2023-01-10T19:26:28.959Z,6.86
2023-01-10T19:28:56.789Z,6.32
2023-01-10T19:31:26.495Z,6.84
2023-01-10T19:33:55.159Z,6.22
2023-01-10T19:36:24.370Z,6.49
2023-01-10T19:38:56.869Z,6.69
2023-01-10T19:41:25.285Z,6.66
2023-01-10T19:43:57.119Z,6.83
2023-01-10T19:46:25.681Z,6.97
2023-01-10T19:48:56.635Z,6.80
2023-01-10T19:51:24.729Z,7.16
2023-01-10T19:53:52.441Z,7.15
2023-01-10T19:56:22.824Z,6.52
2023-01-10T19:58:51.735Z,6.91
2023-01-10T20:01:21.304Z,6.90
2023-01-10T20:03:49.116Z,7.01
2023-01-10T20:06:20.215Z,6.49
2023-01-10T20:08:48.989Z,6.76
2023-01-10T20:11:18.311Z,6.86
2023-01-10T20:13:49.225Z,6.59
2023-01-10T20:16:19.105Z,6.87
2023-01-10T20:18:47.789Z,6.94
2023-01-10T20:21:18.274Z,7.09
2023-01-10T20:23:47.648Z,7.12
2023-01-10T20:26:18.397Z,7.13
2023-01-10T20:28:48.462Z,6.31
2023-01-10T20:31:18.602Z,6.49
2023-01-10T20:33:46.525Z,6.39
2023-01-10T20:36:16.829Z,6.30
2023-01-10T20:38:44.944Z,6.54
2023-01-10T20:41:14.556Z,6.42
2023-01-10T20:43:42.792Z,6.21
2023-01-10T20:46:14.198Z,6.58
2023-01-10T20:48:43.159Z,6.45
2023-01-10T20:51:13.929Z,6.46
2023-01-10T20:53:41.655Z,6.60
2023-01-10T20:56:13.468Z,6.47
2023-01-10T20:58:41.656Z,6.52
2023-01-10T21:01:12.449Z,6.38
2023-01-10T21:03:44.198Z,6.40
2023-01-10T21:06:13.127Z,6.34
2023-01-10T21:08:41.056Z,6.50
2023-01-10T21:11:11.570Z,6.79
2023-01-10T21:13:39.605Z,6.36
2023-01-10T21:16:08.725Z,6.44
2023-01-10T21:18:41.040Z,6.59
2023-01-10T21:21:11.040Z,6.39
2023-01-10T21:23:38.843Z,6.69
2023-01-10T21:26:08.560Z,6.35
2023-01-10T21:28:38.486Z,6.51
2023-01-10T21:31:06.856Z,6.47
2023-01-10T21:33:34.754Z,6.66
2023-01-10T21:36:04.221Z,6.46
2023-01-10T21:38:32.754Z,6.79
2023-01-10T21:41:08.029Z,6.96
2023-01-10T21:43:36.141Z,6.62
2023-01-10T21:46:04.069Z,6.80
2023-01-10T21:48:35.540Z,6.77
2023-01-10T21:51:09.310Z,6.33
2023-01-10T21:53:37.057Z,6.27
2023-01-10T21:56:05.355Z,6.84
2023-01-10T21:58:39.463Z,6.68
2023-01-10T22:01:07.281Z,6.81
2023-01-10T22:03:37.225Z,6.87
2023-01-10T22:06:06.926Z,6.68
2023-01-10T22:08:36.230Z,6.68
2023-01-10T22:11:07.250Z,6.45
2023-01-10T22:13:35.869Z,6.55
2023-01-10T22:16:05.772Z,6.40
2023-01-10T22:18:33.878Z,6.55
2023-01-10T22:21:01.629Z,6.43
2023-01-10T22:23:31.497Z,6.96
2023-01-10T22:26:02.177Z,6.57
2023-01-10T22:28:30.209Z,6.60
2023-01-10T22:30:58.538Z,6.84
2023-01-10T22:33:29.329Z,7.11
2023-01-10T22:36:08.351Z,6.53
2023-01-10T22:38:37.645Z,6.64
2023-01-10T22:41:08.984Z,7.11
2023-01-10T22:43:38.663Z,6.77
2023-01-10T22:46:09.563Z,6.79
2023-01-10T22:48:38.302Z,6.63
2023-01-10T22:51:06.359Z,6.85
2023-01-10T22:53:40.717Z,6.80
2023-01-10T22:56:10.530Z,6.82
2023-01-10T22:58:39.091Z,6.96
2023-01-10T23:01:08.348Z,6.85
2023-01-10T23:03:36.327Z,6.94
2023-01-10T23:06:04.183Z,7.33
2023-01-10T23:08:31.956Z,6.95
2023-01-10T23:11:01.346Z,6.93
2023-01-10T23:13:31.590Z,6.75
2023-01-10T23:16:00.615Z,6.90
2023-01-10T23:18:29.149Z,6.94
2023-01-10T23:20:57.441Z,6.78
2023-01-10T23:23:26.205Z,6.88
2023-01-10T23:26:02.492Z,7.00
2023-01-10T23:28:32.804Z,7.12
2023-01-10T23:31:00.945Z,6.99
2023-01-10T23:33:28.817Z,6.84
2023-01-10T23:35:56.445Z,7.23
2023-01-10T23:38:25.520Z,7.10
2023-01-10T23:40:53.580Z,7.11
2023-01-10T23:43:21.687Z,7.12
2023-01-10T23:45:51.026Z,7.18
2023-01-10T23:48:18.987Z,7.25
2023-01-10T23:50:51.662Z,7.19
2023-01-10T23:53:20.045Z,7.24
2023-01-10T23:55:47.886Z,7.29
2023-01-10T23:58:17.036Z,7.35
